Terminal Aerodrome Forecast
Issued by NWS

Home | Current Version | Previous Version | Text Only | Print | Product List | Glossary On
Versions: 1 2 3 4 5 6 7 8 9 10 11 12 13 14
230
FTUS44 KLZK 242207 AAA
TAFLLQ
TAF AMD
KLLQ 242207Z 2422/2518 16005KT P6SM VCTS BKN050CB BKN120
      TEMPO 2422/2424 2SM TSRA BR BKN025CB
     FM250100 VRB03KT P6SM SCT120 BKN250
     FM251400 33005KT P6SM SCT030 OVC060 PROB30 2514/2518 4SM TSRA
      BR BKN030CB=

USA.gov is the U.S. government's official web portal to all federal, state and local government web resources and services.